Jesupolis, Brazil
Current Conditions -  °F | °C
As of 9:00 AM on Friday 24 Oct 2014 (Local Time) from SBAN Reporting Station
Clear Clear  
Wind Chill: 72°   Ceiling: Unl
Heat Index: 72°   Visibility: 6mi
Dew Point: 61°   Wind: 12mph
Humidity: 69%   Direction: 80°E
Pressure: 30.12"   Gusts: NA
Location:  15.95°S, 49.37°W
Report Text: SBAN 241100Z 08010KT CAVOK 22/16 Q1020
Loading
Personal Weather Stations






























Interactive Weather Map
Tropical Storm Tracking
New forecast layout! Learn more

10-Day Weather Forecast

Advertisements
Track Severe Weather on mobile